Data for 03/07/2013

Time Sea-Level Adjusted Pressure Absolute Pressure Temperature Relative Humidity Dew Point   
(mb) (inHg) (mb) (inHg) (C) (F) (%) (C) (F)
00:05 1009 29.8 838 24.75 0.1 32.3 96 -0.4 31.2
00:10 1009 29.8 839 24.78 0.2 32.3 96 -0.4 31.3
00:15 1009 29.8 839 24.78 0.2 32.4 96 -0.4 31.3
00:20 1009 29.8 839 24.78 0.3 32.5 95 -0.4 31.3
00:25 1010 29.83 839 24.78 0.3 32.6 95 -0.4 31.2
00:30 1010 29.83 839 24.78 0.5 32.9 94 -0.4 31.3
00:35 1010 29.83 839 24.78 0.4 32.7 94 -0.5 31.1
00:40 1010 29.83 839 24.78 0.3 32.6 94 -0.6 30.9
00:45 1010 29.83 839 24.78 0.4 32.6 93 -0.6 30.9
00:50 1010 29.83 839 24.78 0.4 32.8 93 -0.6 30.9
00:55 1010 29.83 840 24.81 0.4 32.7 93 -0.6 30.9
01:00 1011 29.85 840 24.81 0.3 32.5 94 -0.6 30.9
01:05 1011 29.85 840 24.81 0.4 32.7 91 -1 30.3
01:10 1012 29.88 841 24.83 0.1 32.2 86 -2 28.4
01:15 1012 29.88 841 24.83 -0.1 31.8 87 -2 28.4
01:20 1012 29.88 841 24.83 -0.4 31.3 92 -1.5 29.3
01:25 1012 29.88 841 24.83 -0.6 30.8 94 -1.5 29.3
01:30 1012 29.88 841 24.83 -0.9 30.5 95 -1.5 29.2
01:35 1012 29.88 841 24.83 -1 30.3 96 -1.5 29.2
01:40 1012 29.88 842 24.86 -0.9 30.3 96 -1.5 29.2
01:45 1012 29.88 842 24.86 -0.9 30.3 96 -1.6 29.2
01:50 1012 29.88 842 24.86 -0.9 30.4 95 -1.6 29.1
01:55 1012 29.88 842 24.86 -0.9 30.4 94 -1.7 29
02:00 1012 29.88 842 24.86 -0.8 30.5 87 -2.7 27.1
02:05 1012 29.88 842 24.86 -0.4 31.2 81 -3.4 25.9
02:10 1012 29.88 841 24.83 -0.3 31.5 82 -3 26.6
02:15 1012 29.88 842 24.86 -0.2 31.6 80 -3.2 26.2
02:20 1012 29.88 841 24.83 -0.1 31.8 78 -3.6 25.5
02:25 1012 29.88 842 24.86 -0 32 81 -3 26.7
02:30 1012 29.88 841 24.83 -0.4 31.3 85 -2.6 27.3
02:35 1012 29.88 841 24.83 -0.6 30.8 85 -2.9 26.7
02:40 1012 29.88 841 24.83 -0.6 31 83 -3 26.5
02:45 1012 29.88 841 24.83 -0.5 31.1 83 -3 26.7
02:50 1012 29.88 841 24.83 -0.6 30.9 84 -3 26.6
02:55 1012 29.88 842 24.86 -0.7 30.7 83 -3.3 26.1
03:00 1012 29.88 842 24.86 -0.6 30.9 82 -3.3 26.1
03:05 1012 29.88 842 24.86 -0.7 30.8 82 -3.3 26
03:10 1012 29.88 842 24.86 -0.6 30.9 81 -3.5 25.8
03:15 1012 29.88 842 24.86 -0.5 31.1 81 -3.4 25.9
03:20 1012 29.88 842 24.86 -0.8 30.6 84 -3.2 26.2
03:25 1012 29.88 842 24.86 -1.5 29.4 87 -3.4 25.9
03:30 1012 29.88 842 24.86 -1.6 29.2 85 -3.8 25.2
03:35 1012 29.88 842 24.86 -1.3 29.7 83 -3.8 25.2
03:40 1013 29.91 842 24.86 -1.4 29.6 84 -3.8 25.2
03:45 1012 29.88 842 24.86 -1.4 29.4 84 -3.9 25
03:50 1013 29.91 842 24.86 -1.5 29.2 85 -3.8 25.2
03:55 1013 29.91 842 24.86 -1.8 28.8 86 -3.9 25
04:00 1013 29.91 842 24.86 -2 28.4 86 -4 24.7
04:05 1013 29.91 842 24.86 -2.2 28 88 -4 24.8
04:10 1012 29.88 842 24.86 -2.1 28.3 85 -4.3 24.3
04:15 1013 29.91 842 24.86 -1.9 28.5 85 -4.2 24.5
04:20 1013 29.91 842 24.86 -2.1 28.3 85 -4.3 24.3
04:25 1013 29.91 842 24.86 -2 28.4 84 -4.4 24.2
04:30 1013 29.91 842 24.86 -1.8 28.8 83 -4.4 24.2
04:35 1013 29.91 842 24.86 -1.8 28.7 83 -4.4 24.2
04:40 1013 29.91 842 24.86 -1.9 28.6 83 -4.4 24.1
04:45 1013 29.91 842 24.86 -2.2 28 84 -4.5 23.8
04:50 1013 29.91 842 24.86 -2.4 27.8 85 -4.6 23.7
04:55 1013 29.91 842 24.86 -2.5 27.4 85 -4.7 23.6
05:00 1013 29.91 842 24.86 -2.8 27 86 -4.8 23.4
05:05 1013 29.91 842 24.86 -2.7 27.2 85 -4.8 23.4
05:10 1013 29.91 842 24.86 -2.4 27.6 84 -4.8 23.3
05:15 1013 29.91 842 24.86 -2.5 27.6 84 -4.8 23.4
05:20 1013 29.91 842 24.86 -2.3 27.8 82 -5 23.1
05:25 1013 29.91 843 24.89 -2.4 27.6 83 -4.9 23.2
05:30 1013 29.91 843 24.89 -2.5 27.5 81 -5.4 22.4
05:35 1014 29.94 843 24.89 -2.4 27.7 81 -5.3 22.5
05:40 1014 29.94 843 24.89 -2.4 27.7 80 -5.4 22.2
05:45 1014 29.94 843 24.89 -2.3 27.9 78 -5.5 22.1
05:50 1014 29.94 843 24.89 -2.1 28.3 75 -6 21.3
05:55 1014 29.94 843 24.89 -1.8 28.8 71 -6.4 20.4
06:00 1014 29.94 843 24.89 -2 28.4 73 -6.2 20.8
06:05 1014 29.94 843 24.89 -2.7 27.2 74 -6.7 19.9
06:10 1014 29.94 843 24.89 -3 26.6 75 -6.9 19.6
06:15 1014 29.94 843 24.89 -3 26.5 75 -6.9 19.6
06:20 1014 29.94 843 24.89 -3 26.6 76 -6.7 20
06:25 1014 29.94 843 24.89 -3.3 26 79 -6.5 20.2
06:30 1014 29.94 843 24.89 -3.7 25.4 78 -6.9 19.6
06:35 1014 29.94 843 24.89 -3.6 25.5 77 -7.1 19.3
06:40 1014 29.94 843 24.89 -3.5 25.7 74 -7.5 18.5
06:45 1014 29.94 843 24.89 -3 26.7 71 -7.5 18.5
06:50 1014 29.94 843 24.89 -2.8 27 71 -7.3 18.8
06:55 1014 29.94 843 24.89 -2.8 27 71 -7.3 18.9
07:00 1014 29.94 843 24.89 -2.6 27.4 68 -7.6 18.3
07:05 1014 29.94 843 24.89 -2.3 27.9 67 -7.7 18.2
07:10 1014 29.94 844 24.92 -2.1 28.3 70 -6.9 19.6
07:15 1014 29.94 844 24.92 -2.1 28.1 67 -7.5 18.5
07:20 1015 29.97 844 24.92 -2.1 28.3 64 -8 17.7
07:25 1015 29.97 844 24.92 -1.7 28.9 61 -8.3 17.1
07:30 1015 29.97 844 24.92 -1.4 29.4 59 -8.3 17
07:35 1015 29.97 844 24.92 -1.4 29.5 64 -7.4 18.7
07:40 1015 29.97 844 24.92 -1.8 28.8 69 -6.7 19.9
07:45 1015 29.97 844 24.92 -2.2 28 74 -6.3 20.6
07:50 1015 29.97 844 24.92 -2.3 27.8 74 -6.3 20.7
07:55 1015 29.97 844 24.92 -2.2 28 73 -6.4 20.5
08:00 1015 29.97 844 24.92 -2.1 28.2 70 -6.8 19.7
08:05 1015 29.97 844 24.92 -2 28.4 70 -6.8 19.8
08:10 1015 29.97 844 24.92 -1.8 28.8 69 -6.8 19.8
08:15 1015 29.97 844 24.92 -1.5 29.2 65 -7.2 19.1
08:20 1015 29.97 845 24.95 -1.2 29.9 64 -7.2 19
08:25 1015 29.97 845 24.95 -1 30.2 64 -7 19.4
08:30 1016 30 845 24.95 -1 30.3 63 -7.2 19.1
08:35 1016 30 845 24.95 -0.8 30.6 66 -6.4 20.6
08:40 1016 30 845 24.95 -0.7 30.7 62 -7.2 19.1
08:45 1016 30 845 24.95 -0.6 31 64 -6.5 20.3
08:50 1016 30 845 24.95 -0.6 31 65 -6.3 20.7
08:55 1016 30 845 24.95 -0.6 30.9 60 -7.5 18.6
09:00 1016 30 845 24.95 -0.5 31.2 66 -6.2 20.9
09:05 1016 30 845 24.95 -0.5 31.1 65 -6.2 20.8
09:10 1016 30 845 24.95 -0.5 31 70 -5.4 22.3
09:15 1016 30 845 24.95 -0.6 30.8 66 -6.2 20.9
09:20 1016 30 845 24.95 -0.3 31.5 61 -7 19.4
09:25 1016 30 845 24.95 0 32.1 62 -6.4 20.6
09:30 1016 30 845 24.95 0.5 32.9 61 -6.1 21
09:35 1016 30 845 24.95 0.8 33.4 58 -6.5 20.3
09:40 1016 30 846 24.98 1 33.8 56 -6.7 20
09:45 1016 30 846 24.98 1.2 34.2 55 -6.8 19.7
09:50 1016 30 846 24.98 1.7 35 54 -6.7 20
09:55 1016 30 846 24.98 2.1 35.8 51 -7.1 19.3
10:00 1016 30 846 24.98 2.6 36.6 51 -6.5 20.3
10:05 1016 30 846 24.98 2.8 37.1 50 -6.5 20.3
10:10 1016 30 846 24.98 3.2 37.8 46 -7.3 18.8
10:15 1017 30.03 846 24.98 2.9 37.2 49 -6.8 19.7
10:20 1017 30.03 846 24.98 2.7 36.8 48 -7.2 19
10:25 1017 30.03 846 24.98 3 37.5 49 -6.8 19.8
10:30 1017 30.03 846 24.98 3.5 38.3 44 -7.7 18.1
10:35 1017 30.03 846 24.98 2.8 37.1 47 -7.5 18.4
10:40 1017 30.03 846 24.98 2.5 36.5 46 -7.9 17.8
10:45 1017 30.03 846 24.98 3.3 38 46 -7.3 18.8
10:50 1017 30.03 846 24.98 3.8 38.8 45 -7.1 19.3
10:55 1017 30.03 846 24.98 3.2 37.8 48 -6.8 19.8
11:00 1017 30.03 846 24.98 4.1 39.3 44 -7.1 19.3
11:05 1017 30.03 846 24.98 2.8 37 50 -6.7 20
11:10 1017 30.03 846 24.98 3.2 37.7 46 -7.4 18.7
11:15 1017 30.03 846 24.98 3.5 38.4 45 -7.2 19
11:20 1017 30.03 846 24.98 2.8 37.1 46 -7.6 18.4
11:25 1017 30.03 846 24.98 3.6 38.4 45 -7.4 18.7
11:30 1017 30.03 846 24.98 4.1 39.3 42 -7.7 18.2
11:35 1017 30.03 846 24.98 4.4 39.9 43 -7.2 19.1
11:40 1017 30.03 846 24.98 4.8 40.6 40 -7.7 18.2
11:45 1017 30.03 846 24.98 4.8 40.7 39 -7.9 17.8
11:50 1017 30.03 846 24.98 4.4 39.9 39 -8.3 17.1
11:55 1017 30.03 846 24.98 4.8 40.6 39 -8.1 17.4
12:00 1017 30.03 846 24.98 4.6 40.2 40 -7.8 18
12:05 1017 30.03 846 24.98 4.7 40.4 39 -8.2 17.2
12:10 1017 30.03 846 24.98 5 41 37 -8.4 16.9
12:15 1017 30.03 846 24.98 4.9 40.8 39 -8 17.5
12:20 1017 30.03 846 24.98 5.1 41.1 37 -8.6 16.5
12:25 1017 30.03 846 24.98 5.3 41.6 35 -9.1 15.6
12:30 1017 30.03 846 24.98 5.2 41.4 34 -9.4 15.2
12:35 1017 30.03 846 24.98 4.9 40.8 37 -8.5 16.7
12:40 1017 30.03 846 24.98 5 41 36 -8.7 16.3
12:45 1017 30.03 846 24.98 4.9 40.8 37 -8.7 16.4
12:50 1017 30.03 846 24.98 5.1 41.2 34 -9.4 15
12:55 1017 30.03 846 24.98 5.3 41.5 38 -7.9 17.7
13:00 1017 30.03 846 24.98 5.2 41.4 37 -8.2 17.3
13:05 1017 30.03 846 24.98 5.4 41.8 36 -8.3 17
13:10 1017 30.03 846 24.98 5.4 41.7 39 -7.5 18.4
13:15 1017 30.03 846 24.98 4.7 40.5 40 -7.7 18.2
13:20 1017 30.03 846 24.98 3.8 38.8 40 -8.6 16.5
13:25 1017 30.03 846 24.98 3.7 38.7 40 -8.5 16.6
13:30 1017 30.03 846 24.98 4.4 39.9 41 -7.9 17.8
13:35 1017 30.03 846 24.98 4.7 40.5 40 -7.8 17.9
13:40 1017 30.03 846 24.98 4.7 40.5 39 -8 17.7
13:45 1017 30.03 846 24.98 5.7 42.2 35 -8.7 16.3
13:50 1017 30.03 846 24.98 6.2 43.1 33 -8.8 16.2
13:55 1017 30.03 846 24.98 6.2 43.2 35 -8.2 17.2
14:00 1016 30 846 24.98 5.9 42.7 33 -9.3 15.2
14:05 1016 30 846 24.98 6.2 43.2 34 -8.6 16.6
14:10 1016 30 846 24.98 5.6 42.1 35 -8.8 16.1
14:15 1016 30 845 24.95 6 42.8 33 -8.9 15.9
14:20 1016 30 845 24.95 5.5 41.9 34 -9.2 15.4
14:25 1016 30 845 24.95 6.7 44.1 31 -9.2 15.4
14:30 1016 30 845 24.95 6.7 44 33 -8.5 16.7
14:35 1016 30 845 24.95 6.7 44.1 32 -8.8 16.2
14:40 1016 30 845 24.95 6.6 43.9 31 -9.2 15.4
14:45 1016 30 845 24.95 6.6 43.8 34 -8.2 17.2
14:50 1016 30 845 24.95 6.4 43.5 33 -8.6 16.5
14:55 1016 30 845 24.95 7 44.5 32 -8.5 16.8
15:00 1016 30 845 24.95 7.1 44.7 33 -8.3 17
15:05 1016 30 845 24.95 7.1 44.8 34 -7.9 17.8
15:10 1016 30 845 24.95 6.5 43.7 33 -8.5 16.6
15:15 1016 30 845 24.95 6.5 43.6 33 -8.6 16.5
15:20 1016 30 845 24.95 7.1 44.8 30 -9.3 15.2
15:25 1016 30 845 24.95 6.8 44.2 32 -8.9 16
15:30 1016 30 845 24.95 6.5 43.8 32 -8.9 15.9
15:35 1016 30 845 24.95 6.8 44.3 30 -9.4 15
15:40 1016 30 845 24.95 6.9 44.4 30 -9.4 15.2
15:45 1016 30 845 24.95 6.3 43.4 30 -10.2 13.7
15:50 1016 30 845 24.95 6.7 44.1 30 -9.8 14.3
15:55 1016 30 845 24.95 7.1 44.7 31 -9.2 15.5
16:00 1016 30 845 24.95 7.2 45 30 -9.1 15.6
16:05 1016 30 845 24.95 7 44.6 30 -9.2 15.4
16:10 1016 30 845 24.95 5.4 41.7 34 -9.4 15.1
16:15 1016 30 845 24.95 5.7 42.2 31 -10.3 13.5
16:20 1016 30 845 24.95 5.5 41.9 31 -10.3 13.5
16:25 1016 30 845 24.95 5.7 42.3 30 -10.4 13.3
16:30 1016 30 845 24.95 5.8 42.4 31 -9.9 14.2
16:35 1016 30 845 24.95 6.6 43.8 30 -9.9 14.1
16:40 1016 30 845 24.95 7.1 44.8 29 -9.7 14.5
16:45 1016 30 845 24.95 7.2 45 30 -9.2 15.4
16:50 1016 30 845 24.95 7.1 44.8 27 -10.7 12.8
16:55 1016 30 845 24.95 6.9 44.4 28 -10.2 13.6
17:00 1016 30 845 24.95 6.3 43.4 30 -9.8 14.3
17:05 1016 30 845 24.95 6.3 43.3 29 -10.4 13.4
17:10 1016 30 845 24.95 5.7 42.3 31 -10.2 13.6
17:15 1016 30 845 24.95 5.2 41.4 31 -10.6 12.8
17:20 1016 30 845 24.95 5.6 42.1 30 -10.6 13
17:25 1016 30 845 24.95 5.9 42.6 33 -9.4 15.1
17:30 1016 30 845 24.95 5.2 41.3 33 -9.8 14.4
17:35 1016 30 845 24.95 4.9 40.8 32 -10.4 13.3
17:40 1016 30 845 24.95 4.5 40.1 32 -10.7 12.7
17:45 1016 30 845 24.95 4.7 40.4 33 -10.4 13.2
17:50 1016 30 845 24.95 5.1 41.1 32 -10.5 13.2
17:55 1016 30 845 24.95 4.9 40.7 31 -10.8 12.5
18:00 1016 30 845 24.95 4.5 40.1 34 -10.2 13.6
18:05 1016 30 845 24.95 4.5 40.1 35 -9.6 14.7
18:10 1016 30 845 24.95 4.3 39.8 35 -10 14
18:15 1016 30 845 24.95 4.4 39.9 34 -10.1 13.8
18:20 1016 30 845 24.95 4.2 39.5 34 -10.3 13.4
18:25 1016 30 845 24.95 4 39.1 36 -9.7 14.6
18:30 1016 30 845 24.95 3.8 38.9 34 -10.6 12.9
18:35 1016 30 845 24.95 3.8 38.9 36 -9.9 14.2
18:40 1016 30 845 24.95 3.8 38.9 35 -10.2 13.6
18:45 1016 30 845 24.95 3.8 38.8 35 -10.4 13.3
18:50 1016 30 845 24.95 3.7 38.7 36 -10.1 13.9
18:55 1016 30 845 24.95 3.7 38.6 36 -10.1 13.8
19:00 1016 30 845 24.95 3.6 38.4 37 -9.9 14.1
19:05 1016 30 845 24.95 3.5 38.3 37 -9.9 14.1
19:10 1016 30 845 24.95 3.4 38.1 37 -10 14
19:15 1016 30 845 24.95 3.3 37.9 38 -9.8 14.4
19:20 1016 30 845 24.95 3.3 37.9 38 -9.9 14.2
19:25 1016 30 845 24.95 3.2 37.8 38 -9.9 14.2
19:30 1016 30 845 24.95 3.2 37.7 37 -10.2 13.7
19:35 1016 30 845 24.95 3.1 37.6 37 -10.3 13.5
19:40 1016 30 845 24.95 3.1 37.6 37 -10.3 13.4
19:45 1016 30 845 24.95 3.1 37.5 37 -10.3 13.5
19:50 1016 30 845 24.95 3 37.4 38 -9.9 14.1
19:55 1016 30 845 24.95 2.7 36.9 38 -10.2 13.7
20:00 1016 30 845 24.95 2.5 36.4 42 -9.3 15.3
20:05 1016 30 845 24.95 2.3 36.2 42 -9.3 15.3
20:10 1016 30 845 24.95 2.2 35.9 44 -8.8 16.2
20:15 1016 30 845 24.95 1.9 35.3 45 -9 15.9
20:20 1016 30 845 24.95 1.7 35.1 46 -8.6 16.4
20:25 1016 30 845 24.95 1.7 35.1 44 -9.2 15.4
20:30 1016 30 845 24.95 1.8 35.2 43 -9.4 15.1
20:35 1016 30 846 24.98 1.7 35.1 47 -8.5 16.7
20:40 1016 30 846 24.98 1.3 34.3 50 -8.1 17.4
20:45 1016 30 846 24.98 0.9 33.6 54 -7.4 18.6
20:50 1016 30 846 24.98 0.6 33.1 49 -9 15.9
20:55 1016 30 846 24.98 0.7 33.2 47 -9.4 15
21:00 1016 30 846 24.98 1 33.7 46 -9.3 15.3
21:05 1016 30 846 24.98 0.9 33.7 46 -9.5 14.9
21:10 1016 30 846 24.98 0.9 33.7 45 -9.8 14.4
21:15 1016 30 846 24.98 1 33.7 44 -9.9 14.1
21:20 1016 30 846 24.98 1 33.8 45 -9.8 14.4
21:25 1016 30 846 24.98 1 33.8 46 -9.4 15
21:30 1016 30 846 24.98 0.9 33.5 47 -9.1 15.6
21:35 1016 30 846 24.98 0.6 33.1 48 -9.2 15.4
21:40 1016 30 846 24.98 0.5 32.9 49 -9.1 15.7
21:45 1016 30 846 24.98 0.3 32.5 48 -9.4 15.1
21:50 1016 30 846 24.98 0.2 32.4 49 -9.2 15.5
21:55 1016 30 846 24.98 0.1 32.2 48 -9.7 14.5
22:00 1016 30 846 24.98 0.3 32.6 47 -9.9 14.3
22:05 1016 30 846 24.98 0.4 32.8 46 -9.8 14.3
22:10 1016 30 846 24.98 0.4 32.8 46 -10 14
22:15 1016 30 846 24.98 0.3 32.6 46 -9.9 14.1
22:20 1016 30 846 24.98 0.3 32.5 46 -10.1 13.8
22:25 1016 30 845 24.95 0.5 32.9 45 -10.2 13.7
22:30 1016 30 845 24.95 0.7 33.2 43 -10.6 12.9
22:35 1016 30 845 24.95 0.8 33.4 42 -10.6 12.8
22:40 1016 30 845 24.95 0.9 33.5 42 -10.6 12.9
22:45 1016 30 845 24.95 0.8 33.4 42 -10.6 12.9
22:50 1016 30 845 24.95 0.8 33.4 42 -10.7 12.8
22:55 1016 30 845 24.95 0.8 33.4 43 -10.5 13
23:00 1016 30 845 24.95 0.8 33.4 43 -10.5 13.2
23:05 1016 30 845 24.95 0.7 33.3 43 -10.6 13
23:10 1016 30 845 24.95 0.8 33.4 43 -10.5 13.1
23:15 1016 30 845 24.95 0.9 33.6 42 -10.5 13.1
23:20 1016 30 845 24.95 0.9 33.6 43 -10.4 13.2
23:25 1016 30 845 24.95 0.8 33.4 43 -10.3 13.5
23:30 1016 30 845 24.95 0.7 33.3 43 -10.4 13.3
23:35 1016 30 845 24.95 0.8 33.4 44 -10.2 13.6
23:40 1016 30 845 24.95 0.8 33.4 44 -10.1 13.7
23:45 1016 30 845 24.95 0.9 33.5 43 -10.4 13.3
23:50 1016 30 845 24.95 0.9 33.5 44 -10.1 13.8
23:55 1016 30 845 24.95 0.8 33.4 44 -10.1 13.9
24:00 1016 30 845 24.95 0.7 33.3 44 -10 13.9